This is the latest recevied weather packets stored in our database for station/object WW5JC. If no packets are shown the sender has not sent any weather packets the latest 1 day(s).
| Time | Temp. | Humidity | Pressure | Rain* | Wind** | Luminosity | Snow |
|---|---|---|---|---|---|---|---|
| 1836274778 | 22.22° C | 90% | 1018.8 hPa | 0 mm | 1.79 m/s, 101° | 0 W/m² | - |
| 1836274476 | 22.22° C | 90% | 1018.8 hPa | 0 mm | 1.34 m/s, 103° | 0 W/m² | - |
| 1836274330 | 22.22° C | 90% | 1018.9 hPa | 0 mm | 1.79 m/s, 100° | 0 W/m² | - |
| 1836274174 | 22.22° C | 90% | 1018.7 hPa | 0 mm | 1.34 m/s, 96° | 0 W/m² | - |
| 1836273869 | 22.22° C | 89% | 1018.6 hPa | 0 mm | 0.89 m/s, 92° | 0 W/m² | - |
| 1778045823 | 13.89° C | 86% | 1010.9 hPa | 0 mm | 0.89 m/s, 306° | 0 W/m² | - |
| 1778045522 | 13.89° C | 86% | 1010.7 hPa | 0 mm | 1.79 m/s, 355° | 0 W/m² | - |
| 1778045219 | 14.44° C | 86% | 1010.7 hPa | 0 mm | 0.89 m/s, 270° | 0 W/m² | - |
| 1778044918 | 14.44° C | 86% | 1010.9 hPa | 0 mm | 3.13 m/s, 310° | 0 W/m² | - |
| 1778044614 | 14.44° C | 86% | 1010.9 hPa | 0 mm | 2.68 m/s, 288° | 0 W/m² | - |
| 1778044310 | 14.44° C | 86% | 1010.9 hPa | 0 mm | 3.58 m/s, 339° | 0 W/m² | - |
| 1778044009 | 14.44° C | 86% | 1010.8 hPa | 0 mm | 2.24 m/s, 339° | 0 W/m² | - |
| 1778043706 | 15° C | 86% | 1011 hPa | 0 mm | 1.79 m/s, 356° | 0 W/m² | - |
| 1778043402 | 15° C | 86% | 1010.8 hPa | 0 mm | 1.79 m/s, 354° | 0 W/m² | - |
| 1778043098 | 15° C | 86% | 1010.8 hPa | 0 mm | 2.68 m/s, 320° | 0 W/m² | - |
| 1778042797 | 15° C | 86% | 1010.9 hPa | 0 mm | 3.13 m/s, 349° | 0 W/m² | - |
| 1778042494 | 15° C | 85% | 1010.8 hPa | 0 mm | 3.13 m/s, 318° | 0 W/m² | - |
| 1778042191 | 15.56° C | 85% | 1010.6 hPa | 0 mm | 3.13 m/s, 348° | 0 W/m² | - |
| 1778041889 | 15.56° C | 85% | 1010.4 hPa | 0 mm | 2.68 m/s, 332° | 0 W/m² | - |
| 1778041587 | 15.56° C | 85% | 1010.6 hPa | 0 mm | 3.58 m/s, 315° | 0 W/m² | - |
| 1778041285 | 15.56° C | 85% | 1010.3 hPa | 0 mm | 3.58 m/s, 311° | 0 W/m² | - |
| 1778040984 | 15.56° C | 85% | 1010.5 hPa | 0 mm | 2.68 m/s, 336° | 0 W/m² | - |
| 1778040680 | 15.56° C | 85% | 1010.4 hPa | 0 mm | 2.68 m/s, 308° | 0 W/m² | - |
| 1778040378 | 16.11° C | 85% | 1010.4 hPa | 0 mm | 1.79 m/s, 353° | 0 W/m² | - |
| 1778040074 | 16.11° C | 85% | 1010.2 hPa | 0 mm | 1.79 m/s, 15° | 0 W/m² | - |
* Rain latest hour (hover to see other rain measurements)
** Current wind speed in m/s (hover to see current wind gust speed)